Time;durP1;ratioP1;P1;durP2;ratioP2;P2;SDS_P1;SDS_P2;PMS_P1;PMS_P2;Temp;Humidity;BMP_temperature;BMP_pressure;BME280_temperature;BME280_humidity;BME280_pressure;Samples;Min_cycle;Max_cycle;Signal;HPM_P1;HPM_P2
2021/06/15 00:01:35;;;;;;;7.23;5.10;;;25.70;52.10;;;;;;5009777;28;20656;-67
2021/06/15 00:04:05;;;;;;;7.13;5.30;;;25.70;52.10;;;;;;5040751;28;20203;-67
2021/06/15 00:06:32;;;;;;;6.33;4.97;;;25.70;52.10;;;;;;5024110;28;20222;-67
2021/06/15 00:09:04;;;;;;;6.67;5.30;;;25.70;52.00;;;;;;5024248;28;20199;-67
2021/06/15 00:11:35;;;;;;;6.93;4.70;;;25.70;52.00;;;;;;5010720;28;20232;-67
2021/06/15 00:14:05;;;;;;;5.63;4.30;;;25.70;52.00;;;;;;5007890;28;20612;-68
2021/06/15 00:16:38;;;;;;;5.57;4.77;;;25.70;52.00;;;;;;5024685;28;20665;-67
2021/06/15 00:19:08;;;;;;;6.37;4.90;;;25.70;51.90;;;;;;5009577;28;20194;-67
2021/06/15 00:21:38;;;;;;;5.97;4.57;;;25.70;51.90;;;;;;5011234;28;20234;-67
2021/06/15 00:24:08;;;;;;;5.70;4.53;;;25.70;51.80;;;;;;5010035;28;20687;-68
2021/06/15 00:26:35;;;;;;;5.63;5.10;;;25.70;51.80;;;;;;5010635;28;20208;-67
2021/06/15 00:29:04;;;;;;;8.33;4.67;;;25.70;51.80;;;;;;5008904;28;20199;-67
2021/06/15 00:31:34;;;;;;;5.67;4.87;;;25.70;51.80;;;;;;5008385;28;20195;-67
2021/06/15 00:34:03;;;;;;;6.87;4.83;;;25.70;51.80;;;;;;5009019;28;20685;-67
2021/06/15 00:36:32;;;;;;;5.57;4.87;;;25.70;51.80;;;;;;5006979;28;20211;-67
2021/06/15 00:39:06;;;;;;;4.60;4.20;;;25.80;51.80;;;;;;5010392;28;20192;-67
2021/06/15 00:41:35;;;;;;;8.03;5.13;;;25.70;52.30;;;;;;5004578;28;20773;-67
2021/06/15 00:44:14;;;;;;;4.97;4.50;;;25.70;51.70;;;;;;5010788;28;20290;-67
2021/06/15 00:46:44;;;;;;;5.93;5.10;;;25.70;51.70;;;;;;5006828;28;20223;-68
2021/06/15 00:49:15;;;;;;;6.30;4.33;;;25.70;51.60;;;;;;5023267;28;20239;-68
2021/06/15 00:51:46;;;;;;;6.10;4.67;;;25.70;51.60;;;;;;5015737;28;20694;-67
2021/06/15 00:54:15;;;;;;;6.73;4.53;;;25.80;51.60;;;;;;5015621;28;20219;-67
2021/06/15 00:56:46;;;;;;;5.43;4.50;;;25.70;51.60;;;;;;5012650;28;20276;-67
2021/06/15 00:59:15;;;;;;;7.23;4.67;;;25.70;51.60;;;;;;5015079;28;20647;-67
2021/06/15 01:01:43;;;;;;;5.13;4.57;;;25.70;51.50;;;;;;5010633;28;20191;-67
2021/06/15 01:04:13;;;;;;;4.83;4.30;;;25.70;51.50;;;;;;5014852;28;20672;-67
2021/06/15 01:07:19;;;;;;;6.27;4.67;;;25.70;51.50;;;;;;5012856;28;20609;-68
2021/06/15 01:10:02;;;;;;;7.03;4.73;;;25.70;51.40;;;;;;5013776;28;20260;-68
2021/06/15 01:13:13;;;;;;;6.53;4.30;;;25.80;51.50;;;;;;5013482;28;20215;-68
2021/06/15 01:16:05;;;;;;;6.57;4.70;;;25.80;51.50;;;;;;5013985;28;20218;-68
2021/06/15 01:18:44;;;;;;;4.80;4.13;;;25.70;51.50;;;;;;5010886;28;20278;-67
2021/06/15 01:21:13;;;;;;;5.67;4.83;;;25.70;51.40;;;;;;5013587;28;20207;-67
2021/06/15 01:23:59;;;;;;;5.43;4.53;;;25.70;51.40;;;;;;5011461;28;20212;-67
2021/06/15 01:26:58;;;;;;;6.70;4.07;;;25.70;51.40;;;;;;5012773;28;20673;-67
2021/06/15 01:29:39;;;;;;;5.27;4.53;;;25.70;51.40;;;;;;5010396;28;20657;-67
2021/06/15 01:32:17;;;;;;;4.73;4.10;;;25.70;51.40;;;;;;5010830;28;20622;-67
2021/06/15 01:34:48;;;;;;;6.87;4.73;;;25.70;51.40;;;;;;5011203;28;20239;-67
2021/06/15 01:37:38;;;;;;;5.77;4.03;;;25.70;51.40;;;;;;5011156;28;20195;-67
2021/06/15 01:40:21;;;;;;;4.90;4.40;;;25.70;51.40;;;;;;5011459;28;20202;-68
2021/06/15 01:42:59;;;;;;;6.33;4.90;;;25.70;51.40;;;;;;5011309;28;20207;-68
2021/06/15 01:45:47;;;;;;;7.97;4.70;;;25.70;51.40;;;;;;5023928;28;20664;-68
2021/06/15 01:48:46;;;;;;;5.00;4.30;;;25.70;51.40;;;;;;5009856;28;20660;-68
2021/06/15 01:51:21;;;;;;;4.80;4.33;;;25.70;51.40;;;;;;5010092;28;20220;-67
2021/06/15 01:54:00;;;;;;;5.03;4.23;;;25.70;51.40;;;;;;5010118;28;20218;-67
2021/06/15 01:56:32;;;;;;;4.63;4.10;;;25.70;51.40;;;;;;5011253;28;20680;-67
2021/06/15 01:59:03;;;;;;;5.07;4.47;;;25.70;51.40;;;;;;5012959;28;20196;-68
2021/06/15 02:01:35;;;;;;;5.50;4.80;;;25.70;51.40;;;;;;5010726;28;20697;-68
2021/06/15 02:04:05;;;;;;;5.63;4.00;;;25.70;51.40;;;;;;5012976;28;20226;-67
2021/06/15 02:06:45;;;;;;;4.87;4.37;;;25.70;51.40;;;;;;5009897;28;20645;-68
2021/06/15 02:09:16;;;;;;;6.17;5.10;;;25.70;51.40;;;;;;5013769;28;20207;-68
2021/06/15 02:11:47;;;;;;;6.20;5.23;;;25.70;51.50;;;;;;5011417;28;20672;-67
2021/06/15 02:14:18;;;;;;;5.27;4.30;;;25.70;51.40;;;;;;5015030;28;20229;-68
2021/06/15 02:16:53;;;;;;;6.63;4.60;;;25.70;51.40;;;;;;5010997;28;20210;-67
2021/06/15 02:19:37;;;;;;;5.73;4.90;;;25.70;51.40;;;;;;5039806;28;20279;-67
2021/06/15 02:22:31;;;;;;;5.90;4.97;;;25.70;51.40;;;;;;5012993;28;20200;-67
2021/06/15 02:25:13;;;;;;;5.50;4.67;;;25.70;51.40;;;;;;5011440;28;20223;-68
2021/06/15 02:27:41;;;;;;;5.60;4.63;;;25.70;51.60;;;;;;5028234;28;20198;-68
2021/06/15 02:30:12;;;;;;;4.47;4.03;;;25.70;51.60;;;;;;5010990;28;20199;-67
2021/06/15 02:32:44;;;;;;;5.73;4.50;;;25.70;51.60;;;;;;5015245;28;20208;-68
2021/06/15 02:35:14;;;;;;;5.37;4.17;;;25.60;51.60;;;;;;5009695;28;20242;-67
2021/06/15 02:38:05;;;;;;;4.83;4.40;;;25.70;51.60;;;;;;5011840;28;20200;-67
2021/06/15 02:40:39;;;;;;;6.30;4.70;;;25.70;51.70;;;;;;5010144;28;20750;-67
2021/06/15 02:43:11;;;;;;;6.57;5.10;;;25.70;51.60;;;;;;5009907;28;20204;-67
2021/06/15 02:45:53;;;;;;;5.73;4.80;;;25.70;51.60;;;;;;4995139;28;20200;-67
2021/06/15 02:48:28;;;;;;;6.00;4.40;;;25.60;51.50;;;;;;5010770;28;20235;-67
2021/06/15 02:50:56;;;;;;;5.67;4.70;;;25.60;51.50;;;;;;5006985;28;20566;-67
2021/06/15 02:53:45;;;;;;;4.97;4.33;;;25.60;51.60;;;;;;5007733;28;20204;-67
2021/06/15 02:56:17;;;;;;;6.03;4.27;;;25.60;51.60;;;;;;5012702;28;20207;-67
2021/06/15 02:58:50;;;;;;;5.10;4.60;;;25.60;51.60;;;;;;5009862;28;20188;-67
2021/06/15 03:01:21;;;;;;;6.27;4.33;;;25.70;51.60;;;;;;5010209;28;20288;-67
2021/06/15 03:03:51;;;;;;;6.13;4.40;;;25.60;51.50;;;;;;5004759;28;20211;-67
2021/06/15 03:06:21;;;;;;;4.93;4.37;;;25.60;51.50;;;;;;5009026;28;20192;-67
2021/06/15 03:08:50;;;;;;;5.67;4.47;;;25.60;51.50;;;;;;5022746;28;20215;-67
2021/06/15 03:11:23;;;;;;;5.03;4.60;;;25.60;51.50;;;;;;5024500;28;20242;-67
2021/06/15 03:14:12;;;;;;;6.10;5.00;;;25.60;51.50;;;;;;5009766;28;20319;-68
2021/06/15 03:16:44;;;;;;;5.07;4.57;;;25.60;51.40;;;;;;5009413;28;20211;-68
2021/06/15 03:19:51;;;;;;;5.70;4.40;;;25.60;51.50;;;;;;5010016;28;20223;-67
2021/06/15 03:22:26;;;;;;;4.60;4.07;;;25.60;51.50;;;;;;5008759;28;20556;-68
2021/06/15 03:25:20;;;;;;;5.37;3.97;;;25.50;51.30;;;;;;5011602;28;20651;-68
2021/06/15 03:28:11;;;;;;;5.60;4.27;;;25.60;51.50;;;;;;5010287;28;20302;-67
2021/06/15 03:30:45;;;;;;;5.67;4.00;;;25.60;51.40;;;;;;5008599;28;20199;-67
2021/06/15 03:33:16;;;;;;;4.43;4.03;;;25.60;51.50;;;;;;5013737;28;20634;-67
2021/06/15 03:36:06;;;;;;;6.27;3.93;;;25.50;51.30;;;;;;5019461;28;20213;-68
2021/06/15 03:38:36;;;;;;;5.77;3.73;;;25.50;51.30;;;;;;5010816;28;20675;-68
2021/06/15 03:41:07;;;;;;;4.40;4.00;;;25.50;51.30;;;;;;5008671;28;20206;-67
2021/06/15 03:43:47;;;;;;;4.37;3.80;;;25.60;51.30;;;;;;5012076;28;20238;-67
2021/06/15 03:46:36;;;;;;;5.37;4.07;;;25.50;51.20;;;;;;4991791;28;20195;-67
2021/06/15 03:49:27;;;;;;;4.13;3.73;;;25.50;51.10;;;;;;5000932;28;20203;-67
2021/06/15 03:52:01;;;;;;;4.90;3.93;;;25.50;51.10;;;;;;5009403;28;20232;-67
2021/06/15 03:54:33;;;;;;;4.10;3.70;;;25.60;51.30;;;;;;5007767;28;20230;-67
2021/06/15 03:57:07;;;;;;;5.80;3.90;;;25.50;51.20;;;;;;5010713;28;20199;-65
2021/06/15 03:59:48;;;;;;;5.03;3.87;;;25.50;51.20;;;;;;5002303;28;20295;-65
2021/06/15 04:02:15;;;;;;;5.07;3.60;;;25.50;51.20;;;;;;5011113;28;20200;-65
2021/06/15 04:04:48;;;;;;;4.97;3.53;;;25.50;51.00;;;;;;5009311;28;20223;-66
2021/06/15 04:07:21;;;;;;;5.90;3.70;;;25.50;51.10;;;;;;5011017;28;20200;-67
2021/06/15 04:09:52;;;;;;;5.73;3.53;;;25.50;51.00;;;;;;5008578;28;20228;-67
2021/06/15 04:12:24;;;;;;;4.30;3.90;;;25.50;51.00;;;;;;5024825;28;20196;-67
2021/06/15 04:14:54;;;;;;;5.10;3.57;;;25.50;50.90;;;;;;5009801;28;20230;-67
2021/06/15 04:17:27;;;;;;;4.87;3.20;;;25.50;50.90;;;;;;5008517;28;20213;-67
2021/06/15 04:19:58;;;;;;;3.53;2.80;;;25.50;50.90;;;;;;5008580;28;20184;-67
2021/06/15 04:22:50;;;;;;;5.17;3.07;;;25.50;50.90;;;;;;5009100;28;20291;-65
2021/06/15 04:25:42;;;;;;;3.93;3.47;;;25.50;50.80;;;;;;5011082;28;20540;-66
2021/06/15 04:28:13;;;;;;;3.40;3.10;;;25.50;50.80;;;;;;5008459;28;20216;-68
2021/06/15 04:30:41;;;;;;;3.87;3.47;;;25.50;50.80;;;;;;5013752;28;20708;-68
2021/06/15 04:33:13;;;;;;;4.17;3.27;;;25.50;50.90;;;;;;5008928;28;20580;-67
2021/06/15 04:35:48;;;;;;;4.87;3.73;;;25.50;50.70;;;;;;5013603;28;20215;-65
2021/06/15 04:38:30;;;;;;;3.20;2.90;;;25.50;50.90;;;;;;5015261;28;20715;-66
2021/06/15 04:41:05;;;;;;;4.63;3.77;;;25.50;50.80;;;;;;5008069;28;20279;-65
2021/06/15 04:43:48;;;;;;;5.27;3.47;;;25.50;50.80;;;;;;5015268;28;20605;-65
2021/06/15 04:46:43;;;;;;;4.30;3.23;;;25.40;50.70;;;;;;5012998;28;20258;-66
2021/06/15 04:49:22;;;;;;;5.20;3.33;;;25.40;50.80;;;;;;5015563;28;20778;-67
2021/06/15 04:51:57;;;;;;;5.97;3.33;;;25.40;50.70;;;;;;5010145;28;20222;-67
2021/06/15 04:54:33;;;;;;;3.97;3.50;;;25.40;50.70;;;;;;5013141;28;20200;-66
2021/06/15 04:57:11;;;;;;;3.63;3.33;;;25.40;50.70;;;;;;5010833;28;20659;-65
2021/06/15 04:59:41;;;;;;;5.43;3.73;;;25.40;50.60;;;;;;5033573;28;20187;-65
2021/06/15 05:02:16;;;;;;;3.53;2.93;;;25.40;50.70;;;;;;5013988;28;20214;-65
2021/06/15 05:04:52;;;;;;;4.00;3.43;;;25.40;50.70;;;;;;5009602;28;20712;-65
2021/06/15 05:07:20;;;;;;;4.83;3.73;;;25.40;50.80;;;;;;5025177;28;20210;-66
2021/06/15 05:10:06;;;;;;;3.07;2.77;;;25.40;50.80;;;;;;5010849;28;20680;-65
2021/06/15 05:12:44;;;;;;;4.23;3.13;;;25.40;50.70;;;;;;5014221;28;20233;-66
2021/06/15 05:15:14;;;;;;;4.07;2.77;;;25.40;50.80;;;;;;5013659;28;20313;-66
2021/06/15 05:17:47;;;;;;;4.23;2.93;;;25.40;50.80;;;;;;5013824;28;20203;-66
2021/06/15 05:20:19;;;;;;;4.60;2.87;;;25.40;51.00;;;;;;5009783;28;20759;-65
2021/06/15 05:23:01;;;;;;;17.37;7.43;;;25.40;50.80;;;;;;5017259;28;20208;-65
2021/06/15 05:25:31;;;;;;;14.47;6.47;;;25.40;51.50;;;;;;5011913;28;20231;-66
2021/06/15 05:28:01;;;;;;;17.23;6.83;;;25.40;51.40;;;;;;5012693;28;20582;-65
2021/06/15 05:30:30;;;;;;;17.33;7.00;;;25.40;51.30;;;;;;5012773;28;20200;-65
2021/06/15 05:32:57;;;;;;;14.90;6.50;;;25.40;51.20;;;;;;5008389;28;20203;-66
2021/06/15 05:35:26;;;;;;;14.20;5.97;;;25.40;51.10;;;;;;5012494;28;20216;-67
2021/06/15 05:37:58;;;;;;;14.37;6.00;;;25.40;51.10;;;;;;5010399;28;20211;-67
2021/06/15 05:40:31;;;;;;;11.33;5.57;;;25.40;50.80;;;;;;5012697;28;20578;-66
2021/06/15 05:43:03;;;;;;;12.70;5.57;;;25.40;50.90;;;;;;5011083;28;20220;-66
2021/06/15 05:45:34;;;;;;;8.80;5.03;;;25.40;50.90;;;;;;5012283;28;20192;-66
2021/06/15 05:48:05;;;;;;;10.63;4.57;;;25.40;51.00;;;;;;5011955;28;20208;-66
2021/06/15 05:50:32;;;;;;;9.00;4.53;;;25.40;50.60;;;;;;5022966;28;20282;-66
2021/06/15 05:53:02;;;;;;;6.83;3.90;;;25.30;50.50;;;;;;5014100;28;20538;-66
2021/06/15 05:55:32;;;;;;;6.67;4.13;;;25.30;50.40;;;;;;5016384;28;20226;-67
2021/06/15 05:58:01;;;;;;;11.77;4.57;;;25.30;50.40;;;;;;5012651;28;20228;-67
2021/06/15 06:00:30;;;;;;;5.67;3.67;;;25.30;50.40;;;;;;5012877;28;20214;-68
2021/06/15 06:03:01;;;;;;;5.40;3.47;;;25.30;50.10;;;;;;5009372;28;20220;-68
2021/06/15 06:08:24;;;;;;;5.20;3.80;;;25.30;49.90;;;;;;5007832;28;20204;-67
2021/06/15 06:10:54;;;;;;;4.47;2.93;;;25.30;49.90;;;;;;5004247;28;20236;-65
2021/06/15 06:13:22;;;;;;;5.20;3.43;;;25.30;50.00;;;;;;5009290;28;20200;-65
2021/06/15 06:15:55;;;;;;;7.73;3.40;;;25.30;50.00;;;;;;5010405;28;20230;-65
2021/06/15 06:18:24;;;;;;;5.30;3.10;;;25.30;49.90;;;;;;5012148;28;20222;-65
2021/06/15 06:20:51;;;;;;;7.80;3.03;;;25.30;49.80;;;;;;5010837;28;20209;-64
2021/06/15 06:23:19;;;;;;;9.63;3.97;;;25.30;49.90;;;;;;5007263;28;20219;-66
2021/06/15 06:25:51;;;;;;;64.03;16.83;;;25.30;50.10;;;;;;5011522;28;20448;-68
2021/06/15 06:28:23;;;;;;;70.90;22.13;;;25.30;51.60;;;;;;5007274;28;20713;-69
2021/06/15 06:30:52;;;;;;;64.37;19.60;;;25.30;48.70;;;;;;5003895;28;20248;-68
2021/06/15 06:33:34;;;;;;;72.10;19.73;;;25.20;47.70;;;;;;5009009;28;20208;-69
2021/06/15 06:36:03;;;;;;;47.83;17.23;;;25.00;47.70;;;;;;5008586;28;20237;-67
2021/06/15 06:38:34;;;;;;;39.77;14.20;;;24.90;47.80;;;;;;5002633;28;20206;-70
2021/06/15 06:41:05;;;;;;;41.73;14.33;;;24.70;48.40;;;;;;5003299;28;20208;-68
2021/06/15 06:43:37;;;;;;;31.80;12.37;;;24.50;48.80;;;;;;5009613;28;20637;-67
2021/06/15 06:46:05;;;;;;;30.43;11.63;;;24.40;48.90;;;;;;5006286;28;20256;-66
2021/06/15 06:48:35;;;;;;;26.20;10.53;;;24.30;49.00;;;;;;5008380;28;20250;-66
2021/06/15 06:51:05;;;;;;;23.20;10.17;;;24.20;49.00;;;;;;5009565;28;20235;-66
2021/06/15 06:53:35;;;;;;;22.87;9.37;;;24.20;49.00;;;;;;5008753;28;20188;-66
2021/06/15 06:56:07;;;;;;;20.73;8.47;;;24.10;48.80;;;;;;5010405;28;20216;-68
2021/06/15 06:58:38;;;;;;;18.13;7.93;;;24.00;48.90;;;;;;5006552;28;20356;-69
2021/06/15 07:01:13;;;;;;;21.23;8.20;;;24.10;49.90;;;;;;5013559;28;20203;-68
2021/06/15 07:03:45;;;;;;;16.63;7.73;;;24.10;51.20;;;;;;5011847;28;20198;-68
2021/06/15 07:06:15;;;;;;;17.60;7.27;;;24.00;51.20;;;;;;5012567;28;20211;-69
2021/06/15 07:08:45;;;;;;;18.33;7.10;;;24.00;51.30;;;;;;5025656;28;20211;-69
2021/06/15 07:11:15;;;;;;;15.33;6.17;;;24.00;51.00;;;;;;5009956;28;20853;-69
2021/06/15 07:13:46;;;;;;;11.87;6.27;;;24.00;50.70;;;;;;5008216;28;20223;-70
2021/06/15 07:16:16;;;;;;;20.47;6.73;;;24.00;50.30;;;;;;5012264;28;20310;-67
2021/06/15 07:18:44;;;;;;;9.23;5.10;;;24.00;50.10;;;;;;5005277;28;20225;-67
2021/06/15 07:21:15;;;;;;;12.43;5.43;;;23.90;49.70;;;;;;5005575;28;20664;-67
2021/06/15 07:23:44;;;;;;;18.23;5.50;;;23.90;49.20;;;;;;5009184;28;20192;-65
2021/06/15 07:26:19;;;;;;;14.83;4.60;;;23.80;49.40;;;;;;5005696;28;20733;-67
2021/06/15 07:28:48;;;;;;;16.20;4.70;;;23.80;48.80;;;;;;5007688;28;20223;-64
2021/06/15 07:31:18;;;;;;;11.10;4.23;;;23.70;47.80;;;;;;5006331;28;20207;-67
2021/06/15 07:33:48;;;;;;;11.03;4.13;;;23.70;47.20;;;;;;5005777;28;20235;-66
2021/06/15 07:36:18;;;;;;;9.73;4.20;;;23.70;46.70;;;;;;5005484;28;20597;-68
2021/06/15 07:38:51;;;;;;;9.30;3.93;;;23.60;46.50;;;;;;5021397;28;20259;-70
2021/06/15 07:41:22;;;;;;;10.00;4.20;;;23.60;46.20;;;;;;5004263;28;20622;-68
2021/06/15 07:43:54;;;;;;;8.53;3.77;;;23.60;46.20;;;;;;4997515;28;20196;-69
2021/06/15 07:46:22;;;;;;;7.30;3.83;;;23.50;46.50;;;;;;5006164;28;20205;-68
2021/06/15 07:48:53;;;;;;;5.90;3.57;;;23.50;47.20;;;;;;5006853;28;20215;-68
2021/06/15 07:51:22;;;;;;;7.77;4.03;;;23.50;46.50;;;;;;5008023;28;20222;-69
2021/06/15 07:53:51;;;;;;;10.03;3.73;;;23.50;46.60;;;;;;5007597;28;20202;-69
2021/06/15 07:56:26;;;;;;;6.23;3.57;;;23.50;46.50;;;;;;5006366;28;20230;-70
2021/06/15 07:58:58;;;;;;;6.63;3.53;;;23.40;46.50;;;;;;5004439;28;20188;-74
2021/06/15 08:01:28;;;;;;;9.17;4.07;;;23.40;46.60;;;;;;5001231;28;20215;-69
2021/06/15 08:03:58;;;;;;;8.00;3.70;;;23.40;47.30;;;;;;5009112;28;20265;-72
2021/06/15 08:06:26;;;;;;;6.60;2.73;;;23.40;47.10;;;;;;5005504;28;20821;-69
2021/06/15 08:08:55;;;;;;;6.30;3.57;;;23.30;47.00;;;;;;5008175;28;20204;-69
2021/06/15 08:11:26;;;;;;;5.17;3.20;;;23.30;47.00;;;;;;5005176;28;20247;-70
2021/06/15 08:13:55;;;;;;;8.23;3.40;;;23.20;46.80;;;;;;5009809;28;20192;-68
2021/06/15 08:16:24;;;;;;;5.67;3.30;;;23.20;47.10;;;;;;4991466;28;20251;-69
2021/06/15 08:18:55;;;;;;;6.63;3.10;;;23.20;46.90;;;;;;5005946;28;20265;-68
2021/06/15 08:21:23;;;;;;;7.47;2.97;;;23.30;47.00;;;;;;5007340;28;20212;-66
2021/06/15 08:23:53;;;;;;;4.80;3.20;;;23.20;49.50;;;;;;5009068;28;20198;-66
2021/06/15 08:26:30;;;;;;;5.90;3.03;;;23.30;54.40;;;;;;5008347;28;20245;-69
2021/06/15 08:29:00;;;;;;;4.93;3.10;;;23.50;57.10;;;;;;5006378;28;20208;-69
2021/06/15 08:31:28;;;;;;;6.03;3.13;;;23.60;55.10;;;;;;5001378;28;20647;-70
2021/06/15 08:33:57;;;;;;;7.43;3.47;;;23.60;49.10;;;;;;5007319;28;20554;-71
2021/06/15 08:36:27;;;;;;;6.07;2.50;;;23.40;46.00;;;;;;5001394;28;20220;-71
2021/06/15 08:39:03;;;;;;;7.50;2.87;;;23.40;51.80;;;;;;5007059;28;20200;-69
2021/06/15 08:41:37;;;;;;;5.40;2.70;;;23.50;55.80;;;;;;5007026;28;20653;-68
2021/06/15 08:44:08;;;;;;;6.83;2.80;;;23.60;57.60;;;;;;5008490;28;20191;-67
2021/06/15 08:46:38;;;;;;;3.37;2.43;;;23.60;51.20;;;;;;5000842;28;20693;-69
2021/06/15 08:49:10;;;;;;;6.07;2.50;;;23.50;47.00;;;;;;5009165;28;20199;-68
2021/06/15 08:51:41;;;;;;;5.10;2.80;;;23.40;49.30;;;;;;5007301;28;20218;-69
2021/06/15 08:54:19;;;;;;;5.00;2.60;;;23.40;54.60;;;;;;5007292;28;20746;-66
2021/06/15 08:56:54;;;;;;;5.17;2.83;;;23.50;58.10;;;;;;5002419;28;20227;-70
2021/06/15 08:59:29;;;;;;;3.70;2.40;;;23.60;55.90;;;;;;5008338;28;20234;-69
2021/06/15 09:02:00;;;;;;;7.77;2.50;;;23.50;49.40;;;;;;5001261;28;20223;-70
2021/06/15 09:04:35;;;;;;;3.97;2.30;;;23.40;47.20;;;;;;5008723;28;20195;-69
2021/06/15 09:07:05;;;;;;;7.47;2.27;;;23.30;53.50;;;;;;5004540;28;20243;-69
2021/06/15 09:10:07;;;;;;;5.70;2.40;;;23.50;57.30;;;;;;5006195;28;20273;-68
2021/06/15 09:12:40;;;;;;;2.33;1.93;;;23.60;57.40;;;;;;5006217;28;20223;-69
2021/06/15 09:15:23;;;;;;;2.67;2.30;;;23.60;50.00;;;;;;5007321;28;20230;-69
2021/06/15 09:17:54;;;;;;;3.63;2.00;;;23.50;47.00;;;;;;5009527;28;20203;-68
2021/06/15 09:20:30;;;;;;;3.93;2.10;;;23.40;53.30;;;;;;5010042;28;20234;-70
2021/06/15 09:23:11;;;;;;;3.07;2.30;;;23.50;56.90;;;;;;5008076;28;20207;-68
2021/06/15 09:25:39;;;;;;;3.77;2.20;;;23.60;56.50;;;;;;5009971;28;20209;-68
2021/06/15 09:28:21;;;;;;;2.57;1.70;;;23.60;50.10;;;;;;5006162;28;20637;-68
2021/06/15 09:31:14;;;;;;;4.63;1.80;;;23.50;47.20;;;;;;5011044;28;20200;-68
2021/06/15 09:33:46;;;;;;;6.20;1.90;;;23.50;51.20;;;;;;5004755;28;20325;-68
2021/06/15 09:36:19;;;;;;;4.47;1.60;;;23.60;53.70;;;;;;5008924;28;20234;-68
2021/06/15 09:39:03;;;;;;;3.00;1.53;;;23.90;55.20;;;;;;5012017;28;20230;-68
2021/06/15 09:41:47;;;;;;;3.33;1.53;;;24.10;56.50;;;;;;5017471;28;20211;-68
2021/06/15 09:44:26;;;;;;;2.83;1.80;;;24.30;57.40;;;;;;5014117;28;20279;-67
2021/06/15 09:47:07;;;;;;;4.30;1.33;;;24.40;58.00;;;;;;5015250;28;20237;-68
2021/06/15 09:49:54;;;;;;;2.70;1.50;;;24.60;58.60;;;;;;5014065;28;20207;-68
2021/06/15 09:52:28;;;;;;;4.07;1.60;;;24.70;59.00;;;;;;5006075;28;20235;-66
2021/06/15 09:55:09;;;;;;;7.70;2.13;;;24.90;59.40;;;;;;5008659;28;20217;-66
2021/06/15 09:57:41;;;;;;;3.33;1.67;;;24.90;59.50;;;;;;5009166;28;20234;-68
2021/06/15 10:00:24;;;;;;;4.63;1.57;;;25.00;59.70;;;;;;5007869;28;20310;-67
2021/06/15 10:02:58;;;;;;;1.70;1.47;;;25.20;59.40;;;;;;5006485;28;20206;-66
2021/06/15 10:05:37;;;;;;;4.77;1.60;;;25.30;58.20;;;;;;5001977;28;21534;-65
2021/06/15 10:08:13;;;;;;;2.37;1.70;;;25.50;57.50;;;;;;5004810;28;20242;-66
2021/06/15 10:10:46;;;;;;;3.00;1.40;;;25.60;56.70;;;;;;5003803;28;20243;-66
2021/06/15 10:13:16;;;;;;;2.13;1.33;;;25.70;56.00;;;;;;5007431;28;20207;-66
2021/06/15 10:15:45;;;;;;;3.03;1.43;;;25.70;55.40;;;;;;5012221;28;20243;-66
2021/06/15 10:18:12;;;;;;;2.03;1.30;;;25.80;55.00;;;;;;5009198;28;20235;-66
2021/06/15 10:20:43;;;;;;;1.20;1.10;;;25.80;54.60;;;;;;5009516;28;20772;-66
2021/06/15 10:23:13;;;;;;;1.80;1.37;;;25.90;54.30;;;;;;5008891;28;20708;-66
2021/06/15 10:25:43;;;;;;;1.67;1.20;;;25.90;54.00;;;;;;5011009;28;20266;-66
2021/06/15 10:28:14;;;;;;;1.60;1.17;;;25.90;53.70;;;;;;5010056;28;20195;-66
2021/06/15 10:30:46;;;;;;;1.63;1.50;;;26.00;53.40;;;;;;4999774;28;20215;-66
2021/06/15 10:33:25;;;;;;;1.50;1.13;;;26.00;53.20;;;;;;5024038;28;20215;-66
2021/06/15 10:36:02;;;;;;;1.87;1.23;;;26.10;53.10;;;;;;5009619;28;20228;-67
2021/06/15 10:38:45;;;;;;;2.70;1.10;;;26.10;52.70;;;;;;5006243;28;20188;-66
2021/06/15 10:41:25;;;;;;;1.37;1.27;;;26.20;52.50;;;;;;5009585;28;20203;-67
2021/06/15 10:43:59;;;;;;;3.20;1.30;;;26.20;52.30;;;;;;4986817;28;20224;-68
2021/06/15 10:46:38;;;;;;;6.47;1.30;;;26.30;52.40;;;;;;5005235;28;20234;-69
2021/06/15 10:49:15;;;;;;;1.67;1.07;;;26.40;52.20;;;;;;5000612;28;20199;-69
2021/06/15 10:51:56;;;;;;;5.03;1.10;;;26.40;51.90;;;;;;5003518;28;20243;-66
2021/06/15 10:54:38;;;;;;;1.40;1.03;;;26.50;53.50;;;;;;5021213;28;20204;-66
2021/06/15 10:57:31;;;;;;;3.33;0.90;;;26.40;50.20;;;;;;5008880;28;20229;-66
2021/06/15 11:00:27;;;;;;;5.10;1.00;;;26.00;45.60;;;;;;5003789;28;20199;-66
2021/06/15 11:03:21;;;;;;;2.47;1.23;;;25.50;44.80;;;;;;4999513;28;20238;-65
2021/06/15 11:05:59;;;;;;;1.90;0.80;;;25.20;44.40;;;;;;5002546;28;20701;-66
2021/06/15 11:08:42;;;;;;;1.77;0.80;;;25.00;44.60;;;;;;5006143;28;20204;-66
2021/06/15 11:11:19;;;;;;;2.87;1.03;;;24.80;44.90;;;;;;5007230;28;20261;-68
2021/06/15 11:14:03;;;;;;;1.33;0.80;;;24.70;45.10;;;;;;5003467;28;20319;-67
2021/06/15 11:16:47;;;;;;;1.57;0.70;;;24.60;45.30;;;;;;4999708;28;20234;-66
2021/06/15 11:19:44;;;;;;;1.90;0.97;;;24.60;47.90;;;;;;5008095;28;20242;-66
2021/06/15 11:22:20;;;;;;;1.10;1.00;;;24.70;51.40;;;;;;5011061;28;20211;-67
2021/06/15 11:24:51;;;;;;;2.50;0.80;;;24.90;53.00;;;;;;5020647;28;20218;-67
2021/06/15 11:27:27;;;;;;;1.23;0.97;;;25.00;54.20;;;;;;5005041;28;20208;-66
2021/06/15 11:29:57;;;;;;;4.43;1.10;;;25.00;55.10;;;;;;4998108;28;20197;-65
2021/06/15 11:32:36;;;;;;;1.70;1.07;;;25.20;55.80;;;;;;5004374;28;20218;-66
2021/06/15 11:35:29;;;;;;;2.13;1.00;;;25.30;56.40;;;;;;4982516;28;20216;-65
2021/06/15 11:38:05;;;;;;;1.20;0.90;;;25.30;56.70;;;;;;4997190;28;20709;-65
2021/06/15 11:40:43;;;;;;;1.23;1.07;;;25.40;57.40;;;;;;5011022;28;20196;-65
2021/06/15 11:43:20;;;;;;;0.87;0.80;;;25.40;57.90;;;;;;5024387;28;20199;-66
2021/06/15 11:46:13;;;;;;;1.37;1.10;;;25.50;58.40;;;;;;5008641;28;20227;-66
2021/06/15 11:49:10;;;;;;;0.93;0.83;;;25.50;58.60;;;;;;5010018;28;20301;-66
2021/06/15 11:51:45;;;;;;;2.17;1.10;;;25.60;57.20;;;;;;5008302;28;20785;-66
2021/06/15 11:54:15;;;;;;;1.50;0.87;;;25.70;56.30;;;;;;5019465;28;20209;-66
2021/06/15 11:56:49;;;;;;;1.67;0.70;;;25.80;55.50;;;;;;5008741;28;20238;-66
2021/06/15 11:59:20;;;;;;;0.70;0.60;;;25.80;55.00;;;;;;5006321;28;20179;-66
2021/06/15 12:01:50;;;;;;;0.67;0.67;;;25.90;54.60;;;;;;5009273;28;20242;-66
2021/06/15 12:04:19;;;;;;;0.70;0.60;;;26.00;54.20;;;;;;5013582;28;20196;-66
2021/06/15 12:06:50;;;;;;;1.10;0.70;;;26.10;54.50;;;;;;5005277;28;20210;-65
2021/06/15 12:09:18;;;;;;;3.40;0.93;;;26.10;53.60;;;;;;5001426;28;20440;-66
2021/06/15 12:12:05;;;;;;;1.33;1.00;;;26.10;56.80;;;;;;5006164;28;20200;-65
2021/06/15 12:14:38;;;;;;;1.03;0.73;;;25.90;50.50;;;;;;5003739;28;20207;-65
2021/06/15 12:17:09;;;;;;;1.87;1.00;;;25.60;48.60;;;;;;5010942;28;20599;-65
2021/06/15 12:19:38;;;;;;;6.47;0.83;;;25.40;48.70;;;;;;4996355;28;20210;-66
2021/06/15 12:22:19;;;;;;;1.40;0.73;;;25.30;48.90;;;;;;5001485;28;20208;-66
2021/06/15 12:24:53;;;;;;;1.00;0.80;;;25.20;48.90;;;;;;5001431;28;20184;-65
2021/06/15 12:27:24;;;;;;;2.83;0.90;;;25.10;48.40;;;;;;5000295;28;20708;-66
2021/06/15 12:30:05;;;;;;;1.70;0.77;;;25.00;48.40;;;;;;5006610;28;20203;-64
2021/06/15 12:32:47;;;;;;;0.90;0.80;;;25.00;48.40;;;;;;5005530;28;20207;-66
2021/06/15 12:35:18;;;;;;;15.47;4.07;;;24.90;48.10;;;;;;5006877;28;20243;-66
2021/06/15 12:37:51;;;;;;;6.70;2.97;;;24.90;51.10;;;;;;5006382;28;20215;-66
2021/06/15 12:40:22;;;;;;;12.30;3.70;;;24.90;51.50;;;;;;5007826;28;20885;-66
2021/06/15 12:42:54;;;;;;;13.33;3.27;;;24.90;50.20;;;;;;5003915;28;20207;-67
2021/06/15 12:45:32;;;;;;;9.13;3.00;;;24.90;49.70;;;;;;5005416;28;20572;-67
2021/06/15 12:48:16;;;;;;;11.30;3.60;;;24.90;49.50;;;;;;5009075;28;20200;-68
2021/06/15 12:50:45;;;;;;;12.53;3.67;;;24.90;49.60;;;;;;5009773;28;20219;-67
2021/06/15 12:53:12;;;;;;;12.47;3.67;;;24.80;49.30;;;;;;5008549;28;20215;-68
2021/06/15 12:55:43;;;;;;;13.80;4.00;;;24.80;48.80;;;;;;5011091;28;20727;-65
2021/06/15 12:58:24;;;;;;;14.87;3.90;;;24.70;49.40;;;;;;5016150;28;20311;-66
2021/06/15 13:00:53;;;;;;;9.70;3.70;;;24.70;49.30;;;;;;5010898;28;20195;-66
2021/06/15 13:03:36;;;;;;;9.83;3.60;;;24.70;49.40;;;;;;5008336;28;20245;-66
2021/06/15 13:06:12;;;;;;;8.40;3.17;;;24.70;49.30;;;;;;5009431;28;20222;-68
2021/06/15 13:08:43;;;;;;;8.63;2.90;;;24.70;49.20;;;;;;5007309;28;20692;-67
2021/06/15 13:12:17;;;;;;;10.70;2.87;;;24.70;49.00;;;;;;5000169;28;20331;-65
2021/06/15 13:15:09;;;;;;;10.50;2.80;;;24.80;48.90;;;;;;5003114;28;21171;-65
2021/06/15 13:17:40;;;;;;;8.50;2.90;;;24.70;49.00;;;;;;5008166;28;20241;-66
2021/06/15 13:20:15;;;;;;;6.83;2.50;;;24.70;48.80;;;;;;5009589;28;20287;-68
2021/06/15 13:22:56;;;;;;;5.87;2.40;;;24.80;48.90;;;;;;5009061;28;20692;-66
2021/06/15 13:25:35;;;;;;;9.03;2.83;;;24.70;48.80;;;;;;5007442;28;20196;-65
2021/06/15 13:28:12;;;;;;;7.23;2.77;;;24.80;48.90;;;;;;5009697;28;20238;-64
2021/06/15 13:30:43;;;;;;;5.00;2.43;;;24.70;48.70;;;;;;5006848;28;20199;-67